createdAt,value
2017-12-03T00:00:03.315Z,99951.88
2017-12-03T00:02:29.524Z,99961.00
2017-12-03T00:04:55.832Z,99959.16
2017-12-03T00:07:22.054Z,99959.67
2017-12-03T00:09:48.263Z,99956.69
2017-12-03T00:12:14.744Z,99954.09
2017-12-03T00:14:41.096Z,99955.70
2017-12-03T00:17:07.404Z,99948.85
2017-12-03T00:19:33.630Z,99948.41
2017-12-03T00:21:59.838Z,99954.23
2017-12-03T00:24:26.337Z,99961.67
2017-12-03T00:26:52.796Z,99959.73
2017-12-03T00:29:19.172Z,99954.40
2017-12-03T00:31:45.805Z,99970.23
2017-12-03T00:34:12.097Z,99976.49
2017-12-03T00:36:38.326Z,99968.09
2017-12-03T00:39:04.685Z,99973.64
2017-12-03T00:41:31.032Z,99967.27
2017-12-03T00:43:57.206Z,99965.63
2017-12-03T00:46:23.636Z,99968.20
2017-12-03T00:48:50.066Z,99962.75
2017-12-03T00:51:17.487Z,99951.36
2017-12-03T00:53:43.885Z,99951.67
2017-12-03T00:56:10.105Z,99945.94
2017-12-03T00:58:36.343Z,99948.20
2017-12-03T01:01:02.561Z,99952.75
2017-12-03T01:03:28.793Z,99953.85
2017-12-03T01:05:54.985Z,99934.45
2017-12-03T01:08:21.317Z,99948.40
2017-12-03T01:10:47.710Z,99935.78
2017-12-03T01:13:13.893Z,99920.53
2017-12-03T01:15:40.071Z,99914.42
2017-12-03T01:18:06.401Z,99923.16
2017-12-03T01:20:32.590Z,99920.61
2017-12-03T01:22:58.765Z,99930.45
2017-12-03T01:25:25.051Z,99920.36
2017-12-03T01:27:51.303Z,99926.42
2017-12-03T01:30:17.473Z,99922.46
2017-12-03T01:32:43.668Z,99912.73
2017-12-03T01:35:09.991Z,99905.09
2017-12-03T01:37:36.172Z,99913.83
2017-12-03T01:40:02.447Z,99903.05
2017-12-03T01:42:28.633Z,99892.77
2017-12-03T01:44:54.891Z,99886.86
2017-12-03T01:47:21.281Z,99897.00
2017-12-03T01:49:47.464Z,99914.19
2017-12-03T01:52:13.796Z,99910.70
2017-12-03T01:54:40.158Z,99912.30
2017-12-03T01:57:06.356Z,99913.53
2017-12-03T01:59:32.673Z,99912.00
2017-12-03T02:01:59.106Z,99908.81
2017-12-03T02:04:25.289Z,99897.34
2017-12-03T02:06:51.594Z,99901.24
2017-12-03T02:09:17.997Z,99902.27
2017-12-03T02:11:44.238Z,99897.61
2017-12-03T02:14:10.659Z,99890.02
2017-12-03T02:16:36.885Z,99891.66
2017-12-03T02:19:03.062Z,99889.95
2017-12-03T02:21:29.344Z,99879.58
2017-12-03T02:23:55.780Z,99886.97
2017-12-03T02:26:22.014Z,99882.11
2017-12-03T02:28:48.215Z,99880.53
2017-12-03T02:31:14.460Z,99870.65
2017-12-03T02:33:40.640Z,99875.30
2017-12-03T02:36:06.938Z,99863.94
2017-12-03T02:38:33.362Z,99864.97
2017-12-03T02:40:59.878Z,99855.15
2017-12-03T02:43:26.084Z,99856.78
2017-12-03T02:45:52.305Z,99840.98
2017-12-03T02:48:18.494Z,99827.64
2017-12-03T02:50:44.694Z,99846.20
2017-12-03T02:53:11.144Z,99849.93
2017-12-03T02:55:37.352Z,99857.00
2017-12-03T02:58:03.574Z,99855.27
2017-12-03T03:00:29.768Z,99853.83
2017-12-03T03:02:56.018Z,99846.39
2017-12-03T03:05:22.293Z,99839.72
2017-12-03T03:07:48.706Z,99829.51
2017-12-03T03:10:14.941Z,99821.84
2017-12-03T03:12:41.116Z,99804.26
2017-12-03T03:15:07.401Z,99812.82
2017-12-03T03:17:33.580Z,99807.30
2017-12-03T03:19:59.851Z,99810.17
2017-12-03T03:22:26.095Z,99796.28
2017-12-03T03:24:52.285Z,99791.51
2017-12-03T03:27:18.548Z,99787.76
2017-12-03T03:29:44.786Z,99794.16
2017-12-03T03:32:11.216Z,99788.63
2017-12-03T03:34:37.651Z,99784.87
2017-12-03T03:37:04.064Z,99782.71
2017-12-03T03:39:30.310Z,99792.46
2017-12-03T03:41:56.502Z,99800.60
2017-12-03T03:44:22.726Z,99808.34
2017-12-03T03:46:48.995Z,99809.47
2017-12-03T03:49:15.225Z,99805.41
2017-12-03T03:51:41.460Z,99820.38
2017-12-03T03:54:07.649Z,99817.85
2017-12-03T03:56:33.833Z,99805.64
2017-12-03T03:59:00.139Z,99808.72
2017-12-03T04:01:26.305Z,99805.58
2017-12-03T04:03:52.597Z,99793.36
2017-12-03T04:06:19.016Z,99777.87
2017-12-03T04:08:45.189Z,99789.26
2017-12-03T04:11:11.482Z,99779.61
2017-12-03T04:13:37.924Z,99753.55
2017-12-03T04:16:04.142Z,99773.17
2017-12-03T04:18:30.378Z,99797.33
2017-12-03T04:20:56.812Z,99788.81
2017-12-03T04:23:22.979Z,99789.91
2017-12-03T04:25:49.245Z,99789.94
2017-12-03T04:28:15.471Z,99785.39
2017-12-03T04:30:41.721Z,99779.20
2017-12-03T04:33:07.953Z,99763.98
2017-12-03T04:35:34.354Z,99757.20
2017-12-03T04:38:00.544Z,99738.91
2017-12-03T04:40:26.827Z,99726.95
2017-12-03T04:42:53.062Z,99722.78
2017-12-03T04:45:19.302Z,99735.09
2017-12-03T04:47:45.489Z,99733.76
2017-12-03T04:50:11.758Z,99727.54
2017-12-03T04:52:37.957Z,99728.63
2017-12-03T04:55:04.148Z,99729.34
2017-12-03T04:57:30.446Z,99719.91
2017-12-03T04:59:56.672Z,99702.13
2017-12-03T05:02:22.882Z,99711.30
2017-12-03T05:04:49.283Z,99711.09
2017-12-03T05:07:15.564Z,99733.21
2017-12-03T05:09:41.782Z,99725.21
2017-12-03T05:12:08.022Z,99726.85
2017-12-03T05:14:34.248Z,99723.98
2017-12-03T05:17:00.478Z,99729.04
2017-12-03T05:19:26.908Z,99764.19
2017-12-03T05:21:53.126Z,99754.34
2017-12-03T05:24:19.317Z,99740.72
2017-12-03T05:26:45.549Z,99741.33
2017-12-03T05:29:11.824Z,99745.84
2017-12-03T05:31:38.169Z,99736.48
2017-12-03T05:34:04.466Z,99751.26
2017-12-03T05:36:30.709Z,99751.50
2017-12-03T05:38:56.916Z,99751.39
2017-12-03T05:41:23.369Z,99749.89
2017-12-03T05:43:49.590Z,99754.61
2017-12-03T05:46:15.773Z,99753.31
2017-12-03T05:48:41.991Z,99754.95
2017-12-03T05:51:08.175Z,99750.03
2017-12-03T05:53:34.664Z,99749.80
2017-12-03T05:56:00.862Z,99764.85
2017-12-03T05:58:27.177Z,99743.15
2017-12-03T06:00:53.396Z,99737.92
2017-12-03T06:03:19.845Z,99734.02
2017-12-03T06:05:46.032Z,99752.59
2017-12-03T06:08:12.232Z,99762.77
2017-12-03T06:10:38.452Z,99761.85
2017-12-03T06:13:04.920Z,99762.25
2017-12-03T06:15:31.149Z,99757.72
2017-12-03T06:17:57.413Z,99763.56
2017-12-03T06:20:23.636Z,99741.23
2017-12-03T06:22:49.865Z,99740.51
2017-12-03T06:25:16.077Z,99746.91
2017-12-03T06:27:42.319Z,99733.27
2017-12-03T06:30:08.548Z,99739.11
2017-12-03T06:32:35.172Z,99714.13
2017-12-03T06:35:01.433Z,99708.36
2017-12-03T06:37:28.072Z,99708.97
2017-12-03T06:39:54.673Z,99693.05
2017-12-03T06:42:20.873Z,99698.55
2017-12-03T06:44:47.155Z,99695.70
2017-12-03T06:47:13.424Z,99705.14
2017-12-03T06:49:39.882Z,99710.98
2017-12-03T06:52:06.081Z,99704.01
2017-12-03T06:54:32.668Z,99685.34
2017-12-03T06:56:58.868Z,99701.34
2017-12-03T06:59:25.152Z,99680.64
2017-12-03T07:01:51.380Z,99668.90
2017-12-03T07:04:17.996Z,99677.03
2017-12-03T07:06:44.248Z,99661.09
2017-12-03T07:09:10.886Z,99674.27
2017-12-03T07:11:37.069Z,99680.64
2017-12-03T07:14:03.284Z,99688.01
2017-12-03T07:16:29.507Z,99667.06
2017-12-03T07:18:55.722Z,99680.52
2017-12-03T07:21:22.029Z,99671.27
2017-12-03T07:23:48.668Z,99670.95
2017-12-03T07:26:14.898Z,99683.71
2017-12-03T07:28:41.095Z,99675.15
2017-12-03T07:31:07.341Z,99669.38
2017-12-03T07:33:33.654Z,99658.27
2017-12-03T07:35:59.983Z,99664.08
2017-12-03T07:38:26.181Z,99678.18
2017-12-03T07:40:52.379Z,99658.92
2017-12-03T07:43:18.545Z,99669.55
2017-12-03T07:45:44.898Z,99667.50
2017-12-03T07:48:11.153Z,99660.81
2017-12-03T07:50:37.364Z,99667.17
2017-12-03T07:53:03.800Z,99666.72
2017-12-03T07:55:30.032Z,99667.27
2017-12-03T07:57:56.207Z,99663.05
2017-12-03T08:00:22.405Z,99670.52
2017-12-03T08:02:48.580Z,99685.03
2017-12-03T08:05:14.732Z,99683.86
2017-12-03T08:07:40.984Z,99675.14
2017-12-03T08:10:07.156Z,99655.12
2017-12-03T08:12:33.331Z,99666.22
2017-12-03T08:14:59.540Z,99674.98
2017-12-03T08:17:26.116Z,99682.18
2017-12-03T08:19:52.299Z,99686.55
2017-12-03T08:22:18.494Z,99683.14
2017-12-03T08:24:44.791Z,99676.09
2017-12-03T08:27:11.025Z,99673.55
2017-12-03T08:29:37.474Z,99668.71
2017-12-03T08:32:03.660Z,99655.17
2017-12-03T08:34:29.827Z,99643.72
2017-12-03T08:36:56.050Z,99650.90
2017-12-03T08:39:22.354Z,99644.72
2017-12-03T08:41:48.592Z,99650.95
2017-12-03T08:44:14.813Z,99649.86
2017-12-03T08:46:40.997Z,99648.95
2017-12-03T08:49:07.200Z,99655.79
2017-12-03T08:51:33.512Z,99648.72
2017-12-03T08:53:59.710Z,99644.66
2017-12-03T08:56:25.982Z,99635.34
2017-12-03T08:58:52.396Z,99642.63
2017-12-03T09:01:18.610Z,99648.19
2017-12-03T09:03:44.859Z,99658.70
2017-12-03T09:06:11.274Z,99656.05
2017-12-03T09:08:37.459Z,99663.67
2017-12-03T09:11:03.664Z,99674.80
2017-12-03T09:13:30.182Z,99682.52
2017-12-03T09:15:56.365Z,99712.34
2017-12-03T09:18:22.558Z,99721.95
2017-12-03T09:20:48.767Z,99732.19
2017-12-03T09:23:14.948Z,99743.69
2017-12-03T09:25:41.131Z,99760.72
2017-12-03T09:28:07.337Z,99772.10
2017-12-03T09:30:33.546Z,99795.69
2017-12-03T09:32:59.787Z,99786.79
2017-12-03T09:35:26.226Z,99784.86
2017-12-03T09:37:52.410Z,99796.42
2017-12-03T09:40:18.693Z,99810.39
2017-12-03T09:42:45.956Z,99823.63
2017-12-03T09:45:12.187Z,99829.98
2017-12-03T09:47:38.408Z,99837.80
2017-12-03T09:50:05.029Z,99839.56
2017-12-03T09:52:31.466Z,99843.91
2017-12-03T09:54:57.764Z,99866.51
2017-12-03T09:57:23.991Z,99862.88
2017-12-03T09:59:50.371Z,99876.61
2017-12-03T10:02:16.873Z,99875.69
2017-12-03T10:04:43.254Z,99877.90
2017-12-03T10:07:09.457Z,99877.73
2017-12-03T10:09:35.635Z,99882.23
2017-12-03T10:12:01.922Z,99899.23
2017-12-03T10:14:28.131Z,99887.56
2017-12-03T10:16:54.435Z,99881.72
2017-12-03T10:19:20.801Z,99924.61
2017-12-03T10:21:46.994Z,99901.39
2017-12-03T10:24:13.269Z,99914.00
2017-12-03T10:26:39.707Z,99929.66
2017-12-03T10:29:05.904Z,99905.75
2017-12-03T10:31:32.326Z,99929.70
2017-12-03T10:33:58.541Z,99933.66
2017-12-03T10:36:24.988Z,99957.52
2017-12-03T10:38:51.234Z,99924.78
2017-12-03T10:41:17.684Z,99914.03
2017-12-03T10:43:43.919Z,99957.96
2017-12-03T10:46:10.134Z,99956.79
2017-12-03T10:48:36.566Z,99949.45
2017-12-03T10:51:02.787Z,99982.05
2017-12-03T10:53:28.965Z,99977.94
2017-12-03T10:55:55.199Z,99981.72
2017-12-03T10:58:21.375Z,99987.78
2017-12-03T11:00:47.562Z,99990.20
2017-12-03T11:03:13.942Z,99942.13
2017-12-03T11:05:40.176Z,99962.02
2017-12-03T11:08:06.593Z,100004.94
2017-12-03T11:10:32.813Z,99994.91
2017-12-03T11:12:59.051Z,99970.25
2017-12-03T11:15:25.278Z,99976.52
2017-12-03T11:17:51.913Z,99987.41
2017-12-03T11:20:18.186Z,99993.97
2017-12-03T11:22:44.578Z,99995.77
2017-12-03T11:25:11.236Z,100001.69
2017-12-03T11:27:37.455Z,100006.20
2017-12-03T11:30:03.656Z,99998.19
2017-12-03T11:32:30.108Z,99978.67
2017-12-03T11:34:56.338Z,99991.45
2017-12-03T11:37:22.584Z,100004.30
2017-12-03T11:39:49.028Z,100011.60
2017-12-03T11:42:15.405Z,99991.42
2017-12-03T11:44:41.587Z,99981.92
2017-12-03T11:47:07.839Z,100024.28
2017-12-03T11:49:34.131Z,100024.41
2017-12-03T11:52:00.352Z,100016.39
2017-12-03T11:54:26.565Z,100016.46
2017-12-03T11:56:53.160Z,100044.54
2017-12-03T11:59:19.371Z,100056.12
2017-12-03T12:01:45.893Z,100045.75
2017-12-03T12:04:12.088Z,100027.73
2017-12-03T12:06:38.332Z,100020.55
2017-12-03T12:09:04.962Z,100021.01
2017-12-03T12:11:31.143Z,100046.85
2017-12-03T12:13:57.326Z,100049.11
2017-12-03T12:16:23.725Z,100050.68
2017-12-03T12:18:49.899Z,100038.73
2017-12-03T12:21:16.126Z,100042.40
2017-12-03T12:23:42.335Z,100043.56
2017-12-03T12:26:08.650Z,100029.52
2017-12-03T12:28:35.068Z,100021.02
2017-12-03T12:31:01.430Z,100031.95
2017-12-03T12:33:27.616Z,100038.45
2017-12-03T12:35:53.795Z,100046.55
2017-12-03T12:38:20.029Z,100046.64
2017-12-03T12:40:46.220Z,100048.57
2017-12-03T12:43:12.404Z,100044.78
2017-12-03T12:45:38.776Z,100063.95
2017-12-03T12:48:05.049Z,100072.87
2017-12-03T12:50:31.272Z,100075.39
2017-12-03T12:52:57.637Z,100075.27
2017-12-03T12:55:23.842Z,100070.16
2017-12-03T12:57:50.160Z,100064.13
2017-12-03T13:00:16.387Z,100069.30
2017-12-03T13:02:42.631Z,100061.52
2017-12-03T13:05:08.823Z,100072.42
2017-12-03T13:07:35.058Z,100082.38
2017-12-03T13:10:01.264Z,100078.99
2017-12-03T13:12:27.446Z,100074.91
2017-12-03T13:14:53.793Z,100077.76
2017-12-03T13:17:19.983Z,100101.16
2017-12-03T13:19:46.223Z,100105.05
2017-12-03T13:22:12.446Z,100113.78
2017-12-03T13:24:38.689Z,100115.14
2017-12-03T13:27:04.872Z,100130.67
2017-12-03T13:29:31.090Z,100120.41
2017-12-03T13:31:57.568Z,100085.00
2017-12-03T13:34:23.843Z,100093.52
2017-12-03T13:36:50.069Z,100114.94
2017-12-03T13:39:16.472Z,100125.44
2017-12-03T13:41:42.668Z,100145.66
2017-12-03T13:44:08.892Z,100138.30
2017-12-03T13:46:35.081Z,100111.78
2017-12-03T13:49:01.370Z,100099.05
2017-12-03T13:51:27.803Z,100086.73
2017-12-03T13:53:53.998Z,100084.98
2017-12-03T13:56:20.261Z,100090.01
2017-12-03T13:58:46.500Z,100111.33
2017-12-03T14:01:12.686Z,100125.03
2017-12-03T14:03:38.879Z,100135.85
2017-12-03T14:06:05.171Z,100127.55
2017-12-03T14:08:31.416Z,100131.45
2017-12-03T14:10:57.594Z,100142.13
2017-12-03T14:13:23.918Z,100146.31
2017-12-03T14:15:50.718Z,100156.26
2017-12-03T14:18:16.947Z,100145.08
2017-12-03T14:20:43.367Z,100134.99
2017-12-03T14:23:09.812Z,100132.92
2017-12-03T14:25:36.012Z,100150.80
2017-12-03T14:28:02.235Z,100151.28
2017-12-03T14:30:28.439Z,100122.19
2017-12-03T14:32:54.637Z,100132.78
2017-12-03T14:35:20.907Z,100145.77
2017-12-03T14:37:47.189Z,100148.79
2017-12-03T14:40:13.394Z,100157.23
2017-12-03T14:42:39.577Z,100143.40
2017-12-03T14:45:05.784Z,100149.48
2017-12-03T14:47:31.987Z,100152.20
2017-12-03T14:49:58.176Z,100137.02
2017-12-03T14:52:24.371Z,100128.00
2017-12-03T14:54:50.588Z,100133.59
2017-12-03T14:57:16.782Z,100150.30
2017-12-03T14:59:42.965Z,100153.95
2017-12-03T15:02:09.148Z,100160.17
2017-12-03T15:04:35.339Z,100153.33
2017-12-03T15:07:01.521Z,100188.55
2017-12-03T15:09:27.724Z,100205.95
2017-12-03T15:11:53.962Z,100151.50
2017-12-03T15:14:20.145Z,100111.34
2017-12-03T15:16:46.432Z,100137.07
2017-12-03T15:19:12.658Z,100164.65
2017-12-03T15:21:38.928Z,100166.39
2017-12-03T15:24:05.320Z,100151.21
2017-12-03T15:26:31.529Z,100164.51
2017-12-03T15:28:57.759Z,100159.58
2017-12-03T15:31:23.988Z,100156.42
2017-12-03T15:33:50.231Z,100168.82
2017-12-03T15:36:16.420Z,100166.39
2017-12-03T15:38:42.607Z,100150.77
2017-12-03T15:41:08.841Z,100164.43
2017-12-03T15:43:35.026Z,100190.62
2017-12-03T15:46:01.389Z,100180.00
2017-12-03T15:48:27.590Z,100164.94
2017-12-03T15:50:53.748Z,100191.69
2017-12-03T15:53:19.934Z,100206.27
2017-12-03T15:55:46.129Z,100211.20
2017-12-03T15:58:12.304Z,100207.56
2017-12-03T16:00:38.493Z,100208.86
2017-12-03T16:03:04.699Z,100196.52
2017-12-03T16:05:30.954Z,100198.03
2017-12-03T16:07:57.131Z,100189.13
2017-12-03T16:10:23.447Z,100191.93
2017-12-03T16:12:49.690Z,100199.70
2017-12-03T16:15:15.920Z,100210.27
2017-12-03T16:17:42.147Z,100205.56
2017-12-03T16:20:08.336Z,100211.56
2017-12-03T16:22:34.585Z,100219.98
2017-12-03T16:25:00.791Z,100212.06
2017-12-03T16:27:26.969Z,100207.64
2017-12-03T16:29:53.290Z,100196.60
2017-12-03T16:32:19.514Z,100210.29
2017-12-03T16:34:45.674Z,100210.57
2017-12-03T16:37:11.843Z,100215.77
2017-12-03T16:39:38.041Z,100223.63
2017-12-03T16:42:04.242Z,100211.23
2017-12-03T16:44:30.645Z,100208.08
2017-12-03T16:46:57.081Z,100225.12
2017-12-03T16:49:23.319Z,100247.57
2017-12-03T16:51:49.735Z,100261.23
2017-12-03T16:54:15.958Z,100244.98
2017-12-03T16:56:42.147Z,100203.78
2017-12-03T16:59:08.440Z,100229.67
2017-12-03T17:01:34.637Z,100262.84
2017-12-03T17:04:00.838Z,100249.14
2017-12-03T17:06:27.107Z,100221.55
2017-12-03T17:08:53.546Z,100236.23
2017-12-03T17:11:19.789Z,100258.81
2017-12-03T17:13:45.963Z,100272.81
2017-12-03T17:16:12.194Z,100269.71
2017-12-03T17:18:38.386Z,100240.37
2017-12-03T17:21:04.572Z,100233.30
2017-12-03T17:23:30.810Z,100267.67
2017-12-03T17:25:56.993Z,100276.62
2017-12-03T17:28:23.169Z,100290.47
2017-12-03T17:30:49.398Z,100278.02
2017-12-03T17:33:15.589Z,100267.58
2017-12-03T17:35:41.764Z,100271.27
2017-12-03T17:38:08.002Z,100279.52
2017-12-03T17:40:34.176Z,100280.52
2017-12-03T17:43:00.346Z,100282.65
2017-12-03T17:45:26.578Z,100273.45
2017-12-03T17:47:52.776Z,100287.91
2017-12-03T17:50:19.019Z,100283.56
2017-12-03T17:55:26.600Z,100298.14
2017-12-03T17:57:52.798Z,100311.48
2017-12-03T18:00:19.021Z,100296.41
2017-12-03T18:02:45.248Z,100292.31
2017-12-03T18:05:11.455Z,100291.39
2017-12-03T18:07:37.643Z,100302.25
2017-12-03T18:10:03.870Z,100307.77
2017-12-03T18:12:30.044Z,100323.37
2017-12-03T18:14:56.229Z,100330.47
2017-12-03T18:17:22.572Z,100323.12
2017-12-03T18:19:48.763Z,100309.45
2017-12-03T18:22:14.947Z,100308.25
2017-12-03T18:24:41.179Z,100312.98
2017-12-03T18:27:07.374Z,100321.63
2017-12-03T18:29:33.558Z,100344.43
2017-12-03T18:31:59.803Z,100349.04
2017-12-03T18:34:25.974Z,100356.71
2017-12-03T18:36:52.234Z,100324.05
2017-12-03T18:39:18.639Z,100330.18
2017-12-03T18:41:44.822Z,100333.08
2017-12-03T18:44:11.020Z,100337.92
2017-12-03T18:46:37.266Z,100339.20
2017-12-03T18:49:03.474Z,100336.66
2017-12-03T18:51:29.688Z,100327.08
2017-12-03T18:53:55.916Z,100320.42
2017-12-03T18:56:22.079Z,100335.23
2017-12-03T18:58:48.258Z,100350.58
2017-12-03T19:01:14.472Z,100348.19
2017-12-03T19:03:40.668Z,100340.69
2017-12-03T19:06:06.858Z,100336.74
2017-12-03T19:08:33.054Z,100350.37
2017-12-03T19:10:59.232Z,100354.18
2017-12-03T19:13:25.430Z,100363.48
2017-12-03T19:15:51.659Z,100366.68
2017-12-03T19:18:17.863Z,100381.91
2017-12-03T19:20:44.041Z,100368.97
2017-12-03T19:23:10.250Z,100368.84
2017-12-03T19:25:36.424Z,100372.33
2017-12-03T19:28:02.607Z,100384.13
2017-12-03T19:30:28.883Z,100380.18
2017-12-03T19:32:55.058Z,100368.20
2017-12-03T19:35:21.227Z,100374.72
2017-12-03T19:37:47.467Z,100371.83
2017-12-03T19:40:13.665Z,100365.59
2017-12-03T19:42:40.013Z,100364.75
2017-12-03T19:45:06.270Z,100364.52
2017-12-03T19:47:32.459Z,100366.05
2017-12-03T19:49:58.648Z,100379.59
2017-12-03T19:52:24.960Z,100380.31
2017-12-03T19:54:51.150Z,100371.55
2017-12-03T19:57:17.335Z,100376.33
2017-12-03T19:59:43.565Z,100382.20
2017-12-03T20:02:09.786Z,100384.50
2017-12-03T20:04:36.038Z,100371.59
2017-12-03T20:07:02.273Z,100370.27
2017-12-03T20:09:28.543Z,100368.75
2017-12-03T20:11:54.747Z,100376.09
2017-12-03T20:14:20.981Z,100374.12
2017-12-03T20:16:47.233Z,100373.22
2017-12-03T20:19:13.428Z,100374.81
2017-12-03T20:21:39.637Z,100375.31
2017-12-03T20:24:05.932Z,100376.23
2017-12-03T20:26:32.102Z,100382.80
2017-12-03T20:28:58.350Z,100391.28
2017-12-03T20:31:24.546Z,100399.59
2017-12-03T20:33:50.752Z,100405.92
2017-12-03T20:36:17.073Z,100402.99
2017-12-03T20:38:43.262Z,100406.86
2017-12-03T20:41:09.437Z,100412.08
2017-12-03T20:43:35.686Z,100406.25
2017-12-03T20:46:01.855Z,100423.42
2017-12-03T20:48:28.054Z,100416.17
2017-12-03T20:50:54.271Z,100411.75
2017-12-03T20:53:20.460Z,100406.34
2017-12-03T20:55:46.672Z,100406.63
2017-12-03T20:58:12.901Z,100415.63
2017-12-03T21:00:39.090Z,100418.88
2017-12-03T21:03:05.297Z,100403.41
2017-12-03T21:05:31.547Z,100409.87
2017-12-03T21:07:57.732Z,100405.65
2017-12-03T21:10:24.088Z,100405.94
2017-12-03T21:12:50.320Z,100407.53
2017-12-03T21:15:16.515Z,100407.77
2017-12-03T21:17:42.730Z,100401.71
2017-12-03T21:20:08.942Z,100396.52
2017-12-03T21:22:35.131Z,100405.61
2017-12-03T21:25:01.335Z,100398.31
2017-12-03T21:27:27.541Z,100402.77
2017-12-03T21:29:53.848Z,100400.69
2017-12-03T21:32:20.040Z,100395.60
2017-12-03T21:34:46.274Z,100391.06
2017-12-03T21:37:12.455Z,100398.58
2017-12-03T21:39:38.632Z,100392.48
2017-12-03T21:42:04.874Z,100386.33
2017-12-03T21:44:31.039Z,100384.95
2017-12-03T21:46:57.232Z,100377.56
2017-12-03T21:49:23.459Z,100389.41
2017-12-03T21:51:49.650Z,100385.97
2017-12-03T21:54:15.825Z,100393.45
2017-12-03T21:56:42.057Z,100389.67
2017-12-03T21:59:08.327Z,100380.27
2017-12-03T22:01:34.559Z,100379.02
2017-12-03T22:04:00.785Z,100400.00
2017-12-03T22:06:26.977Z,100396.75
2017-12-03T22:08:53.147Z,100391.97
2017-12-03T22:11:19.364Z,100383.53
2017-12-03T22:13:45.568Z,100378.16
2017-12-03T22:16:11.755Z,100378.61
2017-12-03T22:18:37.989Z,100383.84
2017-12-03T22:21:04.184Z,100389.82
2017-12-03T22:23:30.408Z,100387.24
2017-12-03T22:25:56.623Z,100385.33
2017-12-03T22:28:22.809Z,100386.16
2017-12-03T22:30:48.998Z,100394.64
2017-12-03T22:33:15.230Z,100390.97
2017-12-03T22:35:41.405Z,100385.82
2017-12-03T22:38:07.580Z,100387.06
2017-12-03T22:40:33.795Z,100388.31
2017-12-03T22:42:59.990Z,100400.05
2017-12-03T22:45:26.162Z,100403.96
2017-12-03T22:47:52.531Z,100393.81
2017-12-03T22:50:18.715Z,100396.48
2017-12-03T22:52:44.913Z,100385.92
2017-12-03T22:55:11.151Z,100381.88
2017-12-03T22:57:37.363Z,100385.69
2017-12-03T23:00:03.548Z,100397.44
2017-12-03T23:02:29.788Z,100399.63
2017-12-03T23:04:55.973Z,100393.16
2017-12-03T23:07:22.148Z,100380.00
2017-12-03T23:09:48.375Z,100375.00
2017-12-03T23:12:14.563Z,100378.40
2017-12-03T23:14:40.761Z,100383.81
2017-12-03T23:17:06.988Z,100390.23
2017-12-03T23:19:33.191Z,100392.57
2017-12-03T23:21:59.393Z,100394.03
2017-12-03T23:24:25.767Z,100398.16
2017-12-03T23:26:51.957Z,100392.66
2017-12-03T23:29:18.158Z,100383.48
2017-12-03T23:31:44.395Z,100380.64
2017-12-03T23:34:10.595Z,100377.71
2017-12-03T23:36:36.800Z,100378.30
2017-12-03T23:39:03.023Z,100386.65
2017-12-03T23:41:29.218Z,100396.42
2017-12-03T23:43:55.410Z,100394.82
2017-12-03T23:46:21.630Z,100384.45
2017-12-03T23:48:47.808Z,100378.34
2017-12-03T23:51:13.997Z,100382.89
2017-12-03T23:53:40.209Z,100394.14
2017-12-03T23:56:06.436Z,100411.70
2017-12-03T23:58:32.654Z,100414.63
